Time;durP1;ratioP1;P1;durP2;ratioP2;P2;SDS_P1;SDS_P2;PMS_P1;PMS_P2;Temp;Humidity;BMP_temperature;BMP_pressure;BME280_temperature;BME280_humidity;BME280_pressure;Samples;Min_cycle;Max_cycle;Signal;HPM_P1;HPM_P2
2021/12/10 00:02:16;;;;;;;6.60;3.70;;;;;;;9.29;51.85;99545.03;5032410;28;20049;-76
2021/12/10 00:04:44;;;;;;;6.63;4.00;;;;;;;9.26;51.76;99534.44;5021776;28;20079;-76
2021/12/10 00:07:17;;;;;;;6.30;3.88;;;;;;;9.28;51.82;99540.59;5037716;28;20053;-77
2021/12/10 00:09:48;;;;;;;6.82;3.95;;;;;;;9.26;51.91;99533.59;5042285;28;20094;-76
2021/12/10 00:12:24;;;;;;;5.72;3.65;;;;;;;9.27;51.77;99528.06;5048388;28;20065;-76
2021/12/10 00:14:51;;;;;;;6.85;4.18;;;;;;;9.25;51.63;99521.91;5031674;28;20050;-77
2021/12/10 00:17:20;;;;;;;5.50;3.50;;;;;;;9.24;51.77;99512.03;5031173;28;20049;-77
2021/12/10 00:19:50;;;;;;;7.30;3.72;;;;;;;9.26;52.05;99503.81;5014149;28;20148;-76
2021/12/10 00:22:26;;;;;;;6.55;4.07;;;;;;;9.27;52.51;99503.69;5046825;28;20489;-76
2021/12/10 00:24:53;;;;;;;8.43;3.97;;;;;;;9.26;52.16;99499.25;5032084;28;20045;-77
2021/12/10 00:27:27;;;;;;;7.88;4.60;;;;;;;9.26;51.88;99491.13;5033266;28;20057;-76
2021/12/10 00:30:05;;;;;;;7.40;4.25;;;;;;;9.29;51.91;99484.59;5031295;28;20061;-77
2021/12/10 00:32:38;;;;;;;6.50;4.05;;;;;;;9.28;51.81;99480.16;5032552;28;20066;-77
2021/12/10 00:35:21;;;;;;;7.15;4.53;;;;;;;9.30;52.06;99468.22;5031132;28;20408;-77
2021/12/10 00:37:50;;;;;;;7.25;3.90;;;;;;;9.29;51.92;99460.22;5020661;28;20124;-77
2021/12/10 00:40:24;;;;;;;5.40;3.78;;;;;;;9.32;52.05;99454.53;5036120;28;20981;-76
2021/12/10 00:42:51;;;;;;;7.05;3.83;;;;;;;9.30;51.88;99451.97;5021118;28;20072;-76
2021/12/10 00:45:19;;;;;;;6.93;3.80;;;;;;;9.32;51.82;99462.66;5003975;28;20103;-76
2021/12/10 00:47:47;;;;;;;5.13;3.65;;;;;;;9.33;52.10;99453.53;5030836;28;20511;-76
2021/12/10 00:50:19;;;;;;;7.70;4.18;;;;;;;9.34;52.10;99447.16;5029776;28;20073;-76
2021/12/10 00:52:47;;;;;;;4.97;3.42;;;;;;;9.35;51.63;99457.00;5031390;28;20563;-76
2021/12/10 00:55:16;;;;;;;7.38;4.10;;;;;;;9.35;51.72;99452.44;5031249;28;20053;-77
2021/12/10 00:57:43;;;;;;;5.97;3.88;;;;;;;9.33;51.52;99449.00;5032388;28;20041;-76
2021/12/10 01:00:17;;;;;;;5.55;3.47;;;;;;;9.37;51.65;99452.31;5030886;28;20047;-76
2021/12/10 01:02:45;;;;;;;6.53;3.78;;;;;;;9.35;51.64;99452.44;5034537;28;20525;-74
2021/12/10 01:05:14;;;;;;;5.60;3.60;;;;;;;9.35;51.62;99441.59;5036714;28;20052;-76
2021/12/10 01:07:42;;;;;;;6.30;3.60;;;;;;;9.36;51.46;99442.47;5033068;28;20127;-76
2021/12/10 01:10:15;;;;;;;6.30;4.03;;;;;;;9.37;51.81;99445.06;5046242;28;20061;-76
2021/12/10 01:12:48;;;;;;;6.07;3.90;;;;;;;9.36;51.49;99432.50;5033852;28;20046;-76
2021/12/10 01:23:49;;;;;;;5.93;3.10;;;;;;;9.31;51.32;99407.63;5028145;28;20076;-75
2021/12/10 01:28:56;;;;;;;4.90;3.00;;;;;;;9.31;51.21;99404.91;5031926;28;20072;-76
2021/12/10 01:31:23;;;;;;;5.05;3.28;;;;;;;9.30;51.37;99394.25;5009993;28;20045;-76
2021/12/10 01:33:52;;;;;;;6.30;3.22;;;;;;;9.31;50.89;99390.50;5023343;28;20049;-76
2021/12/10 01:36:20;;;;;;;4.95;3.33;;;;;;;9.29;51.37;99392.53;5034518;28;20092;-76
2021/12/10 01:38:50;;;;;;;5.22;3.00;;;;;;;9.28;50.95;99379.97;5029549;28;20076;-76
2021/12/10 01:41:19;;;;;;;5.80;3.17;;;;;;;9.27;51.20;99368.28;5040453;28;20045;-76
2021/12/10 01:43:50;;;;;;;6.80;3.45;;;;;;;9.25;51.12;99355.84;5043849;28;20111;-76
2021/12/10 01:46:26;;;;;;;5.50;3.00;;;;;;;9.24;51.11;99346.84;5031551;28;20084;-76
2021/12/10 01:48:56;;;;;;;5.47;3.05;;;;;;;9.23;50.97;99355.97;5030399;28;20683;-76
2021/12/10 01:51:26;;;;;;;6.80;3.25;;;;;;;9.23;51.07;99358.66;5012764;28;20129;-76
2021/12/10 01:53:55;;;;;;;5.97;3.33;;;;;;;9.22;51.02;99362.41;5030330;28;20049;-76
2021/12/10 01:56:28;;;;;;;5.68;2.90;;;;;;;9.20;51.19;99364.38;5031383;28;20073;-76
2021/12/10 01:58:57;;;;;;;5.25;2.50;;;;;;;9.18;51.06;99362.78;5030255;28;20509;-75
2021/12/10 02:01:38;;;;;;;6.20;2.72;;;;;;;9.20;51.09;99360.81;5030786;28;20053;-76
2021/12/10 02:04:06;;;;;;;6.28;3.38;;;;;;;9.17;51.14;99356.50;5030749;28;20045;-76
2021/12/10 02:06:32;;;;;;;5.38;2.65;;;;;;;9.17;50.89;99345.66;5018694;28;20045;-76
2021/12/10 02:09:00;;;;;;;5.90;2.60;;;;;;;9.17;51.16;99348.38;5003537;28;20048;-77
2021/12/10 02:11:27;;;;;;;5.32;2.90;;;;;;;9.15;50.96;99334.97;5035797;28;20052;-76
2021/12/10 02:13:53;;;;;;;5.25;2.53;;;;;;;9.15;51.28;99331.38;5014167;28;20077;-76
2021/12/10 02:16:20;;;;;;;4.47;2.70;;;;;;;9.16;51.05;99325.84;5028923;28;20041;-76
2021/12/10 02:18:48;;;;;;;4.00;2.38;;;;;;;9.16;51.25;99314.16;5022708;28;20136;-77
2021/12/10 02:21:20;;;;;;;6.00;2.90;;;;;;;9.16;51.09;99301.47;5030338;28;20041;-76
2021/12/10 02:23:56;;;;;;;5.65;2.78;;;;;;;9.14;50.99;99302.63;5022215;28;20084;-76
2021/12/10 02:26:44;;;;;;;4.95;2.63;;;;;;;9.14;50.93;99297.22;5029873;28;20049;-76
2021/12/10 02:29:12;;;;;;;6.20;2.80;;;;;;;9.10;51.00;99298.44;5029352;28;20053;-77
2021/12/10 02:31:40;;;;;;;5.07;3.13;;;;;;;9.07;50.90;99285.16;5028757;28;20084;-76
2021/12/10 02:34:08;;;;;;;4.78;3.15;;;;;;;9.04;50.83;99272.78;5029876;28;20080;-77
2021/12/10 02:36:41;;;;;;;5.10;2.92;;;;;;;9.02;50.73;99260.34;5034286;28;20076;-76
2021/12/10 02:39:12;;;;;;;5.25;3.10;;;;;;;9.00;50.62;99254.19;5020985;28;20048;-76
2021/12/10 02:41:40;;;;;;;5.47;3.33;;;;;;;8.95;50.60;99238.38;5042614;28;20069;-77
2021/12/10 02:44:11;;;;;;;6.47;3.40;;;;;;;8.94;50.78;99227.66;5050213;28;20118;-76
2021/12/10 02:47:09;;;;;;;6.30;3.05;;;;;;;8.92;50.87;99224.22;5033605;28;20076;-76
2021/12/10 02:49:37;;;;;;;6.50;3.08;;;;;;;8.86;50.53;99220.22;5036470;28;20057;-77
2021/12/10 02:52:04;;;;;;;4.82;3.22;;;;;;;8.84;50.81;99214.06;5016166;28;20054;-77
2021/12/10 02:54:35;;;;;;;5.75;2.88;;;;;;;8.80;50.79;99204.50;5015880;28;20076;-77
2021/12/10 02:57:06;;;;;;;5.38;2.85;;;;;;;8.77;50.67;99202.91;5035105;28;20123;-76
2021/12/10 02:59:33;;;;;;;4.20;2.65;;;;;;;8.71;50.71;99198.03;5027049;28;20038;-77
2021/12/10 03:02:02;;;;;;;6.68;2.90;;;;;;;8.68;50.90;99192.00;5026885;28;20562;-76
2021/12/10 03:04:31;;;;;;;5.28;2.78;;;;;;;8.65;50.82;99187.72;5034160;28;20122;-76
2021/12/10 03:07:00;;;;;;;5.38;2.97;;;;;;;8.63;51.15;99183.44;5049398;28;20068;-77
2021/12/10 03:09:28;;;;;;;4.15;2.67;;;;;;;8.61;50.87;99177.31;5038195;28;20037;-76
2021/12/10 03:11:56;;;;;;;5.15;2.72;;;;;;;8.59;50.66;99182.84;5037015;28;20049;-76
2021/12/10 03:14:27;;;;;;;4.97;2.60;;;;;;;8.58;51.05;99185.66;5016256;28;20417;-76
2021/12/10 03:16:58;;;;;;;4.93;2.60;;;;;;;8.56;50.99;99184.97;5031131;28;20393;-76
2021/12/10 03:19:25;;;;;;;7.78;2.30;;;;;;;8.53;50.94;99177.09;5033468;28;20050;-77
2021/12/10 03:21:55;;;;;;;4.85;2.38;;;;;;;8.51;50.67;99174.50;5032217;28;20077;-76
2021/12/10 03:24:25;;;;;;;5.45;1.85;;;;;;;8.51;51.03;99166.41;5033089;28;20053;-76
2021/12/10 03:26:54;;;;;;;4.50;2.00;;;;;;;8.50;51.18;99170.09;5034102;28;20080;-76
2021/12/10 03:29:27;;;;;;;4.22;2.10;;;;;;;8.52;51.16;99162.72;5033661;28;20053;-77
2021/12/10 03:31:56;;;;;;;5.30;2.38;;;;;;;8.49;51.11;99165.66;5033393;28;20076;-76
2021/12/10 03:34:22;;;;;;;5.28;2.10;;;;;;;8.50;50.81;99150.28;5033229;28;20133;-76
2021/12/10 03:36:52;;;;;;;4.53;1.92;;;;;;;8.49;51.10;99144.03;5033729;28;20053;-77
2021/12/10 03:39:22;;;;;;;4.20;2.10;;;;;;;8.49;50.95;99135.91;5034661;28;20042;-76
2021/12/10 03:41:51;;;;;;;4.55;1.90;;;;;;;8.49;51.06;99135.91;5040265;28;20370;-76
2021/12/10 03:44:18;;;;;;;3.55;1.63;;;;;;;8.48;50.91;99131.53;5040644;28;20049;-77
2021/12/10 03:46:45;;;;;;;4.72;2.28;;;;;;;8.49;51.09;99124.25;5033540;28;20096;-76
2021/12/10 03:49:14;;;;;;;3.58;2.00;;;;;;;8.49;50.78;99119.69;5033647;28;20053;-77
2021/12/10 03:51:41;;;;;;;4.18;1.75;;;;;;;8.48;50.81;99111.72;5031448;28;20095;-76
2021/12/10 03:54:09;;;;;;;5.38;1.90;;;;;;;8.48;50.73;99111.72;5032031;28;20073;-76
2021/12/10 03:56:38;;;;;;;4.40;1.58;;;;;;;8.48;50.94;99107.19;5032888;28;20049;-76
2021/12/10 03:59:14;;;;;;;4.40;1.50;;;;;;;8.48;51.12;99099.06;5033354;28;20076;-76
2021/12/10 04:01:43;;;;;;;4.93;1.88;;;;;;;8.46;51.14;99100.19;5031587;28;20060;-76
2021/12/10 04:04:16;;;;;;;3.78;1.40;;;;;;;8.45;51.05;99102.03;5033114;28;20049;-76
2021/12/10 04:06:43;;;;;;;5.28;1.60;;;;;;;8.43;50.65;99101.28;5032447;28;20076;-76
2021/12/10 04:09:11;;;;;;;4.47;1.50;;;;;;;8.44;50.91;99094.03;5036202;28;20049;-76
2021/12/10 04:11:38;;;;;;;6.38;1.65;;;;;;;8.45;50.77;99095.75;5022026;28;20138;-76
2021/12/10 04:14:05;;;;;;;4.65;1.38;;;;;;;8.45;50.79;99101.16;5022586;28;20099;-76
2021/12/10 04:16:33;;;;;;;3.10;1.50;;;;;;;8.44;50.66;99091.34;5032412;28;20447;-76
2021/12/10 04:19:03;;;;;;;3.22;1.65;;;;;;;8.45;50.79;99096.63;5032620;28;20053;-76
2021/12/10 04:21:30;;;;;;;3.92;1.42;;;;;;;8.43;50.93;99086.91;5037050;28;20095;-77
2021/12/10 04:23:57;;;;;;;7.07;1.75;;;;;;;8.43;50.92;99081.50;5032957;28;20052;-77
2021/12/10 04:26:25;;;;;;;3.92;1.45;;;;;;;8.43;50.70;99071.53;5030672;28;20727;-76
2021/12/10 04:28:53;;;;;;;4.40;1.55;;;;;;;8.43;50.95;99066.13;5031878;28;20132;-76
2021/12/10 04:31:23;;;;;;;3.78;1.50;;;;;;;8.43;50.75;99063.44;5032470;28;20045;-77
2021/12/10 04:33:50;;;;;;;5.55;1.83;;;;;;;8.44;50.96;99054.34;5032953;28;20104;-77
2021/12/10 04:36:17;;;;;;;3.25;1.60;;;;;;;8.44;50.67;99053.47;5036902;28;20045;-77
2021/12/10 04:38:44;;;;;;;2.97;1.55;;;;;;;8.43;50.64;99049.06;5032643;28;20103;-76
2021/12/10 04:41:11;;;;;;;3.83;1.27;;;;;;;8.43;50.83;99049.91;5041346;28;20476;-76
2021/12/10 04:43:40;;;;;;;4.35;1.42;;;;;;;8.44;50.78;99046.22;5032626;28;20045;-76
2021/12/10 04:46:07;;;;;;;3.17;1.23;;;;;;;8.45;50.86;99041.66;5032100;28;20076;-77
2021/12/10 04:48:46;;;;;;;4.53;1.40;;;;;;;8.46;50.53;99038.84;5032264;28;20087;-76
2021/12/10 04:51:13;;;;;;;3.20;1.10;;;;;;;8.44;50.79;99037.25;5031877;28;20042;-76
2021/12/10 04:53:40;;;;;;;3.58;1.42;;;;;;;8.43;50.77;99040.94;5018897;28;20107;-76
2021/12/10 04:56:07;;;;;;;5.35;1.30;;;;;;;8.43;50.78;99035.53;5030292;28;20052;-76
2021/12/10 04:58:34;;;;;;;3.75;1.40;;;;;;;8.44;51.01;99026.44;5033237;28;20111;-76
2021/12/10 05:01:03;;;;;;;5.28;1.40;;;;;;;8.44;50.69;99027.28;5046457;28;20068;-76
2021/12/10 05:03:30;;;;;;;6.15;1.50;;;;;;;8.45;50.99;99020.03;5031704;28;20041;-76
2021/12/10 05:06:02;;;;;;;3.13;1.20;;;;;;;8.44;50.90;99016.47;5019314;28;20496;-77
2021/12/10 05:08:31;;;;;;;3.90;1.50;;;;;;;8.46;50.65;99008.22;5039949;28;20053;-76
2021/12/10 05:10:59;;;;;;;3.00;1.30;;;;;;;8.46;50.72;99006.38;5027069;28;20064;-76
2021/12/10 05:13:26;;;;;;;2.92;1.23;;;;;;;8.45;50.48;98999.25;5035488;28;20045;-76
2021/12/10 05:15:58;;;;;;;3.10;1.40;;;;;;;8.45;50.63;98993.00;5033971;28;20045;-76
2021/12/10 05:18:35;;;;;;;3.35;1.40;;;;;;;8.47;50.46;98982.91;5032105;28;20077;-77
2021/12/10 05:21:07;;;;;;;5.35;1.70;;;;;;;8.44;50.61;98984.03;5031522;28;20053;-76
2021/12/10 05:23:35;;;;;;;7.93;1.83;;;;;;;8.44;50.56;98978.63;5031694;28;20084;-77
2021/12/10 05:26:03;;;;;;;4.32;1.50;;;;;;;8.45;50.68;98974.06;5031648;28;20045;-76
2021/12/10 05:28:33;;;;;;;2.33;1.40;;;;;;;8.44;50.67;98967.81;5031073;28;20473;-76
2021/12/10 05:31:00;;;;;;;3.55;1.58;;;;;;;8.44;50.61;98962.38;5013227;28;20049;-77
2021/12/10 05:33:28;;;;;;;6.88;2.15;;;;;;;8.44;50.32;98956.13;5047047;28;20049;-76
2021/12/10 05:35:57;;;;;;;5.82;1.80;;;;;;;8.41;50.61;98962.66;5029461;28;20045;-77
2021/12/10 05:38:24;;;;;;;5.15;1.98;;;;;;;8.44;50.67;98951.56;5031201;28;20107;-76
2021/12/10 05:40:53;;;;;;;4.22;1.80;;;;;;;8.44;50.52;98954.28;5020158;28;20041;-76
2021/12/10 05:43:20;;;;;;;3.47;1.70;;;;;;;8.42;50.42;98944.56;5027247;28;20107;-77
2021/12/10 05:45:48;;;;;;;7.72;2.28;;;;;;;8.43;50.15;98936.34;5029913;28;20053;-77
2021/12/10 05:48:17;;;;;;;4.35;2.20;;;;;;;8.41;50.32;98943.72;5015868;28;20130;-77
2021/12/10 05:50:44;;;;;;;3.83;1.80;;;;;;;8.38;50.46;98927.78;5023252;28;20095;-77
2021/12/10 05:53:11;;;;;;;3.90;1.90;;;;;;;8.36;50.44;98927.06;5034112;28;20128;-76
2021/12/10 05:55:41;;;;;;;4.57;2.08;;;;;;;8.36;50.24;98913.53;5036866;28;20385;-76
2021/12/10 05:58:15;;;;;;;6.25;2.08;;;;;;;8.34;50.25;98915.50;5042163;28;20053;-77
2021/12/10 06:00:46;;;;;;;6.38;1.95;;;;;;;8.34;50.07;98921.78;5030295;28;20084;-76
2021/12/10 06:03:14;;;;;;;4.18;2.00;;;;;;;8.34;50.30;98915.50;5046102;28;20049;-77
2021/12/10 06:05:41;;;;;;;5.35;1.80;;;;;;;8.34;50.29;98915.50;5030698;28;20053;-76
2021/12/10 06:08:09;;;;;;;4.97;2.00;;;;;;;8.31;50.30;98911.25;5027977;28;20065;-77
2021/12/10 06:10:38;;;;;;;5.25;2.22;;;;;;;8.34;50.23;98902.84;5031898;28;20107;-77
2021/12/10 06:13:06;;;;;;;4.85;2.03;;;;;;;8.31;50.06;98896.88;5031963;28;20049;-77
2021/12/10 06:15:33;;;;;;;5.40;2.10;;;;;;;8.28;50.17;98908.78;5023727;28;20647;-76
2021/12/10 06:18:00;;;;;;;4.60;1.80;;;;;;;8.27;50.11;98898.97;5031553;28;20088;-77
2021/12/10 06:20:31;;;;;;;5.22;2.28;;;;;;;8.28;50.08;98900.66;5030153;28;20076;-76
2021/12/10 06:23:00;;;;;;;3.45;1.90;;;;;;;8.25;50.03;98903.63;5032087;28;20053;-76
2021/12/10 06:25:29;;;;;;;4.75;2.20;;;;;;;8.26;50.24;98902.66;5027479;28;20053;-76
2021/12/10 06:27:56;;;;;;;5.32;2.20;;;;;;;8.23;50.33;98902.94;5015463;28;20360;-76
2021/12/10 06:30:28;;;;;;;5.40;1.90;;;;;;;8.25;50.38;98895.53;5031734;28;20053;-76
2021/12/10 06:32:56;;;;;;;6.63;2.38;;;;;;;8.23;50.55;98893.97;5037870;28;20045;-76
2021/12/10 06:35:26;;;;;;;5.72;2.25;;;;;;;8.24;50.13;98885.69;5027301;28;20049;-76
2021/12/10 06:37:53;;;;;;;4.40;2.10;;;;;;;8.21;50.04;98891.41;5029723;28;20104;-76
2021/12/10 06:40:27;;;;;;;5.88;2.00;;;;;;;8.20;50.09;98881.56;5031238;28;20042;-76
2021/12/10 06:42:55;;;;;;;3.35;1.80;;;;;;;8.18;50.20;98890.78;5025810;28;20046;-76
2021/12/10 06:45:26;;;;;;;5.72;2.10;;;;;;;8.17;50.14;98878.28;5028470;28;20433;-76
2021/12/10 06:47:58;;;;;;;5.55;1.95;;;;;;;8.15;50.25;98881.13;5027264;28;20049;-77
2021/12/10 06:50:28;;;;;;;4.80;1.80;;;;;;;8.15;50.32;98874.88;5027432;28;20053;-76
2021/12/10 06:52:58;;;;;;;4.50;1.98;;;;;;;8.15;50.30;98872.16;5030865;28;20042;-77
2021/12/10 06:55:27;;;;;;;3.45;1.67;;;;;;;8.15;50.24;98872.16;5012354;28;20099;-76
2021/12/10 06:57:54;;;;;;;5.93;1.98;;;;;;;8.15;50.36;98874.88;5015147;28;20100;-76
2021/12/10 07:00:33;;;;;;;4.40;1.63;;;;;;;8.16;50.01;98874.72;5029373;28;20128;-76
2021/12/10 07:03:00;;;;;;;5.47;1.80;;;;;;;8.13;50.39;98875.00;5031072;28;20488;-77
2021/12/10 07:05:27;;;;;;;5.53;1.90;;;;;;;8.11;49.89;98870.72;5012480;28;20473;-76
2021/12/10 07:07:54;;;;;;;5.80;1.80;;;;;;;8.11;50.31;98868.00;5031294;28;20455;-76
2021/12/10 07:10:20;;;;;;;4.75;1.70;;;;;;;8.13;50.10;98872.28;5037916;28;20127;-76
2021/12/10 07:12:48;;;;;;;4.63;1.95;;;;;;;8.13;50.18;98872.28;5030377;28;20535;-76
2021/12/10 07:15:15;;;;;;;4.07;1.98;;;;;;;8.15;50.25;98881.13;5011724;28;20139;-77
2021/12/10 07:17:48;;;;;;;3.05;1.65;;;;;;;8.16;49.93;98871.16;5030081;28;20137;-77
2021/12/10 07:20:17;;;;;;;3.20;1.40;;;;;;;8.17;50.13;98872.88;5030738;28;20046;-77
2021/12/10 07:22:44;;;;;;;4.88;1.70;;;;;;;8.15;50.21;98873.03;5035332;28;20126;-77
2021/12/10 07:25:11;;;;;;;5.25;2.00;;;;;;;8.15;50.03;98873.03;5056428;28;20057;-76
2021/12/10 07:27:38;;;;;;;5.32;1.70;;;;;;;8.15;50.16;98869.47;5033738;28;20049;-76
2021/12/10 07:30:06;;;;;;;3.67;1.50;;;;;;;8.16;49.92;98869.31;5029619;28;20084;-77
2021/12/10 07:32:36;;;;;;;3.88;1.77;;;;;;;8.16;49.96;98863.91;5030299;28;20054;-76
2021/12/10 07:35:06;;;;;;;3.88;1.70;;;;;;;8.19;50.08;98865.47;5032888;28;20049;-77
2021/12/10 07:37:33;;;;;;;3.45;1.50;;;;;;;8.19;50.18;98862.78;5016999;28;20096;-76
2021/12/10 07:39:59;;;;;;;4.97;1.80;;;;;;;8.18;49.91;98866.47;5021784;28;20102;-76
2021/12/10 07:42:26;;;;;;;2.72;1.50;;;;;;;8.19;49.94;98869.03;5039037;28;20045;-76
2021/12/10 07:44:56;;;;;;;6.07;1.92;;;;;;;8.17;49.94;98868.31;5015953;28;20127;-76
2021/12/10 07:47:23;;;;;;;4.38;1.75;;;;;;;8.17;49.85;98870.16;5020006;28;20076;-77
2021/12/10 07:49:50;;;;;;;4.10;1.42;;;;;;;8.16;49.87;98869.31;5022373;28;20061;-76
2021/12/10 07:52:23;;;;;;;4.72;1.80;;;;;;;8.15;49.76;98864.91;5033106;28;20604;-76
2021/12/10 07:54:50;;;;;;;;;;;;;;;7.95;50.17;98861.25;5031063;28;20041;-76
2021/12/10 07:57:18;;;;;;;4.10;2.10;;;;;;;8.09;50.18;98857.31;5031201;28;19920;-76
2021/12/10 07:59:46;;;;;;;4.63;1.67;;;;;;;8.09;49.91;98857.31;5029513;28;20047;-76
2021/12/10 08:02:13;;;;;;;4.60;1.60;;;;;;;8.10;49.95;98856.34;5020545;28;20261;-75
2021/12/10 08:04:40;;;;;;;6.03;1.80;;;;;;;8.10;49.81;98863.59;5026007;28;20054;-77
2021/12/10 08:07:06;;;;;;;5.88;1.65;;;;;;;8.11;50.21;98868.88;5032918;28;20046;-77
2021/12/10 08:09:33;;;;;;;4.32;2.08;;;;;;;8.10;49.94;98860.88;5049187;28;20404;-75
2021/12/10 08:12:03;;;;;;;3.30;1.50;;;;;;;8.10;49.83;98861.75;5012110;28;20053;-75
2021/12/10 08:14:29;;;;;;;2.75;1.42;;;;;;;8.10;49.94;98858.19;5032394;28;20095;-75
2021/12/10 08:16:56;;;;;;;2.70;1.25;;;;;;;8.11;49.76;98868.00;5027258;28;20068;-75
2021/12/10 08:19:23;;;;;;;4.50;1.52;;;;;;;8.13;49.85;98858.78;5036887;28;20079;-75
2021/12/10 08:21:49;;;;;;;5.13;1.73;;;;;;;8.13;50.04;98858.78;5025506;28;20080;-75
2021/12/10 08:24:17;;;;;;;3.58;1.50;;;;;;;8.15;50.02;98864.91;5031910;28;20492;-75
2021/12/10 08:26:45;;;;;;;4.35;1.70;;;;;;;8.16;50.12;98861.19;5039699;28;20492;-75
2021/12/10 08:29:12;;;;;;;4.80;1.80;;;;;;;8.17;50.31;98853.94;5037580;28;20045;-75
2021/12/10 08:31:39;;;;;;;4.53;1.80;;;;;;;8.19;50.06;98851.97;5030732;28;20041;-75
2021/12/10 08:34:06;;;;;;;4.13;1.60;;;;;;;8.20;50.03;98854.53;5005468;28;20041;-75
2021/12/10 08:36:33;;;;;;;5.80;2.00;;;;;;;8.22;49.96;98846.31;5031639;28;20083;-75
2021/12/10 08:39:00;;;;;;;4.80;1.90;;;;;;;8.23;49.78;98845.31;5031954;28;20081;-75
2021/12/10 08:41:32;;;;;;;4.88;1.60;;;;;;;8.24;49.73;98844.28;5035069;28;20041;-76
2021/12/10 08:43:59;;;;;;;4.30;1.77;;;;;;;8.23;49.87;98853.41;5030196;28;20053;-75
2021/12/10 08:46:27;;;;;;;4.53;1.70;;;;;;;8.24;49.95;98845.16;5025037;28;20099;-76
2021/12/10 08:48:57;;;;;;;4.38;1.55;;;;;;;8.27;49.81;98838.63;5032269;28;20050;-76
2021/12/10 08:51:48;;;;;;;4.10;1.80;;;;;;;8.29;49.50;98850.16;5031783;28;20049;-75
2021/12/10 08:54:17;;;;;;;5.68;1.80;;;;;;;8.26;49.75;98842.31;5032121;28;20092;-76
2021/12/10 08:56:46;;;;;;;3.22;1.75;;;;;;;8.27;49.90;98838.63;5032311;28;20068;-76
2021/12/10 08:59:15;;;;;;;5.05;1.88;;;;;;;8.28;49.75;98840.34;5032024;28;20076;-76
2021/12/10 09:01:45;;;;;;;6.07;2.13;;;;;;;8.29;49.52;98840.22;5031895;28;20060;-75
2021/12/10 09:04:13;;;;;;;4.35;2.08;;;;;;;8.28;49.76;98835.78;5022945;28;20509;-76
2021/12/10 09:06:44;;;;;;;5.93;2.00;;;;;;;8.31;49.71;98842.81;5032171;28;20096;-76
2021/12/10 09:09:14;;;;;;;5.10;1.98;;;;;;;8.31;49.66;98835.56;5032120;28;20068;-77
2021/12/10 09:11:45;;;;;;;2.45;1.52;;;;;;;8.32;49.43;98829.13;5023844;28;20048;-76
2021/12/10 09:14:26;;;;;;;5.32;1.98;;;;;;;8.32;49.65;98845.34;5047039;28;20060;-76
2021/12/10 09:16:56;;;;;;;6.93;2.00;;;;;;;8.34;49.45;98832.56;5032023;28;20133;-76
2021/12/10 09:19:24;;;;;;;5.38;2.17;;;;;;;8.35;49.71;98839.69;5018155;28;20049;-77
2021/12/10 09:21:51;;;;;;;3.78;1.70;;;;;;;8.35;49.45;98834.28;5013448;28;20049;-76
2021/12/10 09:24:20;;;;;;;4.50;1.85;;;;;;;8.36;49.04;98840.53;5031749;28;20045;-76
2021/12/10 09:26:54;;;;;;;5.15;2.30;;;;;;;8.36;49.29;98841.41;5031878;28;20388;-76
2021/12/10 09:29:21;;;;;;;3.65;1.90;;;;;;;8.38;49.62;98825.91;5017996;28;20879;-76
2021/12/10 09:31:48;;;;;;;4.45;2.05;;;;;;;8.40;49.36;98832.00;5031309;28;20147;-77
2021/12/10 09:34:16;;;;;;;5.75;2.03;;;;;;;8.43;49.21;98832.72;5013669;28;20052;-76
2021/12/10 09:36:46;;;;;;;4.15;2.33;;;;;;;8.44;49.18;98834.44;5031607;28;20057;-76
2021/12/10 09:39:14;;;;;;;3.25;2.20;;;;;;;8.45;49.61;98833.44;5014225;28;20080;-76
2021/12/10 09:41:42;;;;;;;4.10;2.20;;;;;;;8.44;49.34;98835.28;5031046;28;20057;-76
2021/12/10 09:44:09;;;;;;;5.35;2.20;;;;;;;8.47;49.31;98835.03;5030857;28;20396;-76
2021/12/10 09:46:37;;;;;;;4.53;2.20;;;;;;;8.46;49.16;98833.31;5030891;28;20045;-76
2021/12/10 09:49:06;;;;;;;4.55;2.20;;;;;;;8.48;49.23;98823.22;5030928;28;20141;-76
2021/12/10 09:51:38;;;;;;;4.40;2.45;;;;;;;8.51;49.07;98838.28;5030388;28;20084;-76
2021/12/10 09:54:11;;;;;;;4.22;1.92;;;;;;;8.53;49.04;98839.88;5030878;28;20496;-76
2021/12/10 09:56:39;;;;;;;;;;;;;;;8.35;49.49;98834.28;5032039;28;20053;-77
2021/12/10 09:59:06;;;;;;;4.90;2.30;;;;;;;8.50;49.21;98837.44;5014179;28;19936;-76
2021/12/10 10:01:36;;;;;;;5.50;2.20;;;;;;;8.53;48.86;98830.91;5045794;28;20049;-76
2021/12/10 10:04:05;;;;;;;5.35;2.33;;;;;;;8.52;48.71;98813.81;5030846;28;20111;-77
2021/12/10 10:06:40;;;;;;;5.28;2.15;;;;;;;8.54;48.26;98819.09;5031597;28;20076;-76
2021/12/10 10:09:11;;;;;;;6.45;2.45;;;;;;;8.53;48.65;98818.25;5033949;28;20057;-76
2021/12/10 10:11:46;;;;;;;5.47;2.30;;;;;;;8.54;48.78;98819.94;5034364;28;20069;-76
2021/12/10 10:14:13;;;;;;;4.50;2.17;;;;;;;8.53;48.82;98815.53;5029497;28;20049;-76
2021/12/10 10:16:44;;;;;;;6.50;2.47;;;;;;;8.55;48.77;98813.56;5028287;28;20045;-76
2021/12/10 10:19:15;;;;;;;3.85;2.10;;;;;;;8.58;48.61;98813.25;5030870;28;20566;-76
2021/12/10 10:21:48;;;;;;;5.20;2.20;;;;;;;8.61;48.48;98806.72;5032570;28;20042;-77
2021/12/10 10:24:17;;;;;;;6.15;2.45;;;;;;;8.58;48.82;98802.44;5013975;28;20049;-76
2021/12/10 10:26:54;;;;;;;6.32;2.17;;;;;;;8.64;48.29;98798.34;5013269;28;20057;-76
2021/12/10 10:29:23;;;;;;;5.22;2.13;;;;;;;8.64;48.49;98784.81;5013496;28;20472;-77
2021/12/10 10:31:56;;;;;;;4.65;2.10;;;;;;;8.66;48.79;98789.06;5030083;28;20049;-77
2021/12/10 10:34:24;;;;;;;3.83;2.05;;;;;;;8.67;48.61;98789.91;5030476;28;20077;-76
2021/12/10 10:36:52;;;;;;;5.70;1.85;;;;;;;8.68;48.64;98791.63;5031186;28;20092;-76
2021/12/10 10:39:24;;;;;;;5.68;2.00;;;;;;;8.71;48.70;98792.22;5029781;28;20046;-76
2021/12/10 10:42:16;;;;;;;3.10;1.80;;;;;;;8.71;48.20;98784.09;5029386;28;20542;-76
2021/12/10 10:44:58;;;;;;;3.97;2.00;;;;;;;8.73;48.43;98789.34;5024166;28;20085;-77
2021/12/10 10:47:26;;;;;;;4.10;2.20;;;;;;;8.73;48.43;98778.53;5031380;28;20103;-76
2021/12/10 10:50:00;;;;;;;4.38;2.00;;;;;;;8.77;47.78;98791.66;5029775;28;20057;-76
2021/12/10 10:52:34;;;;;;;4.07;1.83;;;;;;;8.76;47.55;98783.66;5030399;28;20512;-77
2021/12/10 10:55:10;;;;;;;4.93;2.10;;;;;;;8.76;46.97;98781.81;5028105;28;20064;-77
2021/12/10 10:57:40;;;;;;;5.50;1.90;;;;;;;8.74;48.20;98786.50;5021913;28;20053;-76
2021/12/10 11:00:16;;;;;;;3.95;1.83;;;;;;;8.76;47.46;98786.38;5031535;28;20476;-75
2021/12/10 11:02:50;;;;;;;4.90;1.70;;;;;;;8.75;47.90;98768.41;5031150;28;20409;-75
2021/12/10 11:05:20;;;;;;;2.95;1.48;;;;;;;8.77;47.84;98766.44;5033407;28;20108;-75
2021/12/10 11:07:51;;;;;;;4.50;2.13;;;;;;;8.76;47.59;98764.72;5037626;28;20052;-75
2021/12/10 11:10:29;;;;;;;5.28;2.13;;;;;;;8.82;46.73;98771.41;5037789;28;20101;-75
2021/12/10 11:13:14;;;;;;;3.45;1.70;;;;;;;8.82;46.92;98771.41;5015484;28;20046;-75
2021/12/10 11:15:57;;;;;;;3.13;1.63;;;;;;;8.81;46.98;98778.69;5047149;28;20583;-76
2021/12/10 11:18:27;;;;;;;5.70;1.80;;;;;;;8.79;47.70;98791.50;5040502;28;20057;-75
2021/12/10 11:20:55;;;;;;;5.38;1.88;;;;;;;8.82;47.99;98783.09;5025143;28;20052;-76
2021/12/10 11:23:28;;;;;;;3.17;1.65;;;;;;;8.85;47.70;98776.53;5030709;28;20420;-76
2021/12/10 11:25:56;;;;;;;;;;;;;;;8.66;47.86;98783.66;5033763;28;20115;-76
2021/12/10 11:28:31;;;;;;;5.75;1.50;;;;;;;8.88;47.41;98781.69;5032076;28;19928;-75
2021/12/10 11:31:08;;;;;;;4.82;1.90;;;;;;;8.91;47.00;98781.38;5028469;28;20099;-76
2021/12/10 11:33:45;;;;;;;3.90;1.65;;;;;;;8.93;47.49;98782.97;5024200;28;20157;-75
2021/12/10 11:36:22;;;;;;;4.90;1.52;;;;;;;8.95;47.47;98774.69;5028425;28;20037;-75
2021/12/10 11:38:55;;;;;;;5.53;1.90;;;;;;;8.96;47.67;98776.41;5034477;28;20089;-75
2021/12/10 11:41:27;;;;;;;3.63;1.80;;;;;;;8.99;47.51;98785.09;5029254;28;20154;-75
2021/12/10 11:49:29;;;;;;;4.30;1.90;;;;;;;9.04;47.40;98780.13;5032425;28;20045;-75
2021/12/10 11:52:02;;;;;;;3.90;1.70;;;;;;;9.09;47.15;98785.09;5017123;28;20076;-75
2021/12/10 11:54:36;;;;;;;3.85;1.33;;;;;;;9.09;46.89;98779.66;5029209;28;20496;-76
2021/12/10 11:57:25;;;;;;;2.38;1.40;;;;;;;9.13;46.64;98787.38;5029382;28;20047;-76
2021/12/10 11:59:54;;;;;;;4.65;1.33;;;;;;;9.11;47.56;98783.94;5032094;28;20049;-76
2021/12/10 12:02:25;;;;;;;4.10;1.63;;;;;;;9.17;47.06;98785.22;5032803;28;20236;-76
2021/12/10 12:04:58;;;;;;;4.70;1.73;;;;;;;9.16;47.14;98788.91;5026629;28;20054;-76
2021/12/10 12:07:30;;;;;;;2.80;1.48;;;;;;;9.19;46.72;98793.19;5020082;28;20061;-77
2021/12/10 12:10:22;;;;;;;3.57;1.53;;;;;;;9.18;47.01;98789.63;5032407;28;20045;-77
2021/12/10 12:12:54;;;;;;;4.13;1.50;;;;;;;9.16;47.52;98788.91;5035407;28;20344;-76